sensor_id;sensor_type;location;lat;lon;timestamp;P1;durP1;ratioP1;P2;durP2;ratioP2
70715;SDS011;59053;50.832;12.882;2022-12-18T00:00:54;50.07;;;16.90;;
70715;SDS011;59053;50.832;12.882;2022-12-18T00:03:22;52.00;;;17.47;;
70715;SDS011;59053;50.832;12.882;2022-12-18T00:08:25;46.45;;;16.50;;
70715;SDS011;59053;50.832;12.882;2022-12-18T00:13:49;49.08;;;14.85;;
70715;SDS011;59053;50.832;12.882;2022-12-18T00:16:16;53.73;;;16.17;;
70715;SDS011;59053;50.832;12.882;2022-12-18T00:18:43;50.67;;;15.50;;
70715;SDS011;59053;50.832;12.882;2022-12-18T00:21:09;45.27;;;15.50;;
70715;SDS011;59053;50.832;12.882;2022-12-18T00:23:35;42.20;;;16.13;;
70715;SDS011;59053;50.832;12.882;2022-12-18T00:26:01;55.67;;;17.20;;
70715;SDS011;59053;50.832;12.882;2022-12-18T00:28:29;54.35;;;16.27;;
70715;SDS011;59053;50.832;12.882;2022-12-18T00:31:05;44.70;;;15.27;;
70715;SDS011;59053;50.832;12.882;2022-12-18T00:33:31;42.60;;;15.95;;
70715;SDS011;59053;50.832;12.882;2022-12-18T00:36:10;37.70;;;13.50;;
70715;SDS011;59053;50.832;12.882;2022-12-18T00:38:36;43.17;;;16.45;;
70715;SDS011;59053;50.832;12.882;2022-12-18T00:41:02;42.58;;;14.52;;
70715;SDS011;59053;50.832;12.882;2022-12-18T00:43:27;50.40;;;16.47;;
70715;SDS011;59053;50.832;12.882;2022-12-18T00:45:53;47.70;;;15.83;;
70715;SDS011;59053;50.832;12.882;2022-12-18T00:48:18;46.83;;;15.07;;
70715;SDS011;59053;50.832;12.882;2022-12-18T00:50:43;46.97;;;17.00;;
70715;SDS011;59053;50.832;12.882;2022-12-18T00:53:09;47.53;;;14.50;;
70715;SDS011;59053;50.832;12.882;2022-12-18T00:55:34;41.20;;;13.70;;
70715;SDS011;59053;50.832;12.882;2022-12-18T00:57:59;40.00;;;13.23;;
70715;SDS011;59053;50.832;12.882;2022-12-18T01:00:24;50.03;;;15.83;;
70715;SDS011;59053;50.832;12.882;2022-12-18T01:02:50;49.13;;;15.13;;
70715;SDS011;59053;50.832;12.882;2022-12-18T01:05:15;43.40;;;15.10;;
70715;SDS011;59053;50.832;12.882;2022-12-18T01:07:41;42.57;;;14.87;;
70715;SDS011;59053;50.832;12.882;2022-12-18T01:10:06;46.67;;;15.57;;
70715;SDS011;59053;50.832;12.882;2022-12-18T01:12:34;41.83;;;14.68;;
70715;SDS011;59053;50.832;12.882;2022-12-18T01:14:59;38.97;;;14.13;;
70715;SDS011;59053;50.832;12.882;2022-12-18T01:17:24;40.87;;;13.53;;
70715;SDS011;59053;50.832;12.882;2022-12-18T01:19:50;44.77;;;14.20;;
70715;SDS011;59053;50.832;12.882;2022-12-18T01:22:15;41.47;;;13.60;;
70715;SDS011;59053;50.832;12.882;2022-12-18T01:24:40;48.33;;;15.10;;
70715;SDS011;59053;50.832;12.882;2022-12-18T01:27:05;38.53;;;14.90;;
70715;SDS011;59053;50.832;12.882;2022-12-18T01:29:31;38.23;;;13.17;;
70715;SDS011;59053;50.832;12.882;2022-12-18T01:32:09;44.70;;;14.27;;
70715;SDS011;59053;50.832;12.882;2022-12-18T01:34:35;44.00;;;14.25;;
70715;SDS011;59053;50.832;12.882;2022-12-18T01:37:03;38.95;;;12.05;;
70715;SDS011;59053;50.832;12.882;2022-12-18T01:39:29;40.70;;;13.37;;
70715;SDS011;59053;50.832;12.882;2022-12-18T01:41:54;40.63;;;13.93;;
70715;SDS011;59053;50.832;12.882;2022-12-18T01:47:23;33.85;;;11.93;;
70715;SDS011;59053;50.832;12.882;2022-12-18T01:52:34;35.22;;;10.98;;
70715;SDS011;59053;50.832;12.882;2022-12-18T01:55:00;43.30;;;12.30;;
70715;SDS011;59053;50.832;12.882;2022-12-18T01:57:27;37.97;;;13.13;;
70715;SDS011;59053;50.832;12.882;2022-12-18T01:59:53;40.15;;;12.20;;
70715;SDS011;59053;50.832;12.882;2022-12-18T02:02:21;33.22;;;10.98;;
70715;SDS011;59053;50.832;12.882;2022-12-18T02:04:46;32.17;;;11.23;;
70715;SDS011;59053;50.832;12.882;2022-12-18T02:07:30;28.53;;;10.20;;
70715;SDS011;59053;50.832;12.882;2022-12-18T02:10:06;30.35;;;10.25;;
70715;SDS011;59053;50.832;12.882;2022-12-18T02:12:39;26.80;;;9.63;;
70715;SDS011;59053;50.832;12.882;2022-12-18T02:17:52;32.63;;;11.35;;
70715;SDS011;59053;50.832;12.882;2022-12-18T02:23:10;27.30;;;9.65;;
70715;SDS011;59053;50.832;12.882;2022-12-18T02:28:21;28.77;;;9.80;;
70715;SDS011;59053;50.832;12.882;2022-12-18T02:30:51;30.50;;;10.65;;
70715;SDS011;59053;50.832;12.882;2022-12-18T02:33:32;29.50;;;10.13;;
70715;SDS011;59053;50.832;12.882;2022-12-18T02:35:58;27.08;;;10.05;;
70715;SDS011;59053;50.832;12.882;2022-12-18T02:38:26;27.85;;;9.10;;
70715;SDS011;59053;50.832;12.882;2022-12-18T02:40:54;31.53;;;10.07;;
70715;SDS011;59053;50.832;12.882;2022-12-18T02:43:20;31.58;;;10.35;;
70715;SDS011;59053;50.832;12.882;2022-12-18T02:45:47;27.10;;;9.67;;
70715;SDS011;59053;50.832;12.882;2022-12-18T02:48:13;34.45;;;10.00;;
70715;SDS011;59053;50.832;12.882;2022-12-18T02:51:03;26.02;;;9.30;;
70715;SDS011;59053;50.832;12.882;2022-12-18T02:53:36;33.00;;;11.20;;
70715;SDS011;59053;50.832;12.882;2022-12-18T03:01:34;31.97;;;10.13;;
70715;SDS011;59053;50.832;12.882;2022-12-18T03:04:07;26.98;;;9.55;;
70715;SDS011;59053;50.832;12.882;2022-12-18T03:06:36;24.98;;;8.57;;
70715;SDS011;59053;50.832;12.882;2022-12-18T03:09:03;30.65;;;11.32;;
70715;SDS011;59053;50.832;12.882;2022-12-18T03:11:32;33.88;;;10.63;;
70715;SDS011;59053;50.832;12.882;2022-12-18T03:14:17;30.37;;;8.93;;
70715;SDS011;59053;50.832;12.882;2022-12-18T03:16:46;31.85;;;8.00;;
70715;SDS011;59053;50.832;12.882;2022-12-18T03:19:15;27.67;;;8.65;;
70715;SDS011;59053;50.832;12.882;2022-12-18T03:21:42;23.10;;;8.38;;
70715;SDS011;59053;50.832;12.882;2022-12-18T03:24:08;34.88;;;10.05;;
70715;SDS011;59053;50.832;12.882;2022-12-18T03:26:35;24.90;;;9.73;;
70715;SDS011;59053;50.832;12.882;2022-12-18T03:29:06;32.83;;;9.40;;
70715;SDS011;59053;50.832;12.882;2022-12-18T03:31:34;25.15;;;8.20;;
70715;SDS011;59053;50.832;12.882;2022-12-18T03:34:03;28.83;;;9.05;;
70715;SDS011;59053;50.832;12.882;2022-12-18T03:36:38;20.52;;;7.25;;
70715;SDS011;59053;50.832;12.882;2022-12-18T03:39:03;24.23;;;8.87;;
70715;SDS011;59053;50.832;12.882;2022-12-18T03:44:29;24.80;;;8.17;;
70715;SDS011;59053;50.832;12.882;2022-12-18T03:49:50;27.02;;;9.00;;
70715;SDS011;59053;50.832;12.882;2022-12-18T03:52:23;23.30;;;8.20;;
70715;SDS011;59053;50.832;12.882;2022-12-18T03:54:51;23.60;;;7.80;;
70715;SDS011;59053;50.832;12.882;2022-12-18T03:57:22;24.83;;;7.83;;
70715;SDS011;59053;50.832;12.882;2022-12-18T03:59:51;25.65;;;8.45;;
70715;SDS011;59053;50.832;12.882;2022-12-18T04:02:20;21.13;;;7.38;;
70715;SDS011;59053;50.832;12.882;2022-12-18T04:04:47;18.67;;;6.65;;
70715;SDS011;59053;50.832;12.882;2022-12-18T04:07:13;25.13;;;7.57;;
70715;SDS011;59053;50.832;12.882;2022-12-18T04:09:41;26.98;;;8.57;;
70715;SDS011;59053;50.832;12.882;2022-12-18T04:12:08;26.63;;;8.70;;
70715;SDS011;59053;50.832;12.882;2022-12-18T04:14:34;20.23;;;7.05;;
70715;SDS011;59053;50.832;12.882;2022-12-18T04:17:02;21.92;;;7.35;;
70715;SDS011;59053;50.832;12.882;2022-12-18T04:19:30;29.47;;;8.23;;
70715;SDS011;59053;50.832;12.882;2022-12-18T04:21:55;18.00;;;6.32;;
70715;SDS011;59053;50.832;12.882;2022-12-18T04:24:21;20.90;;;7.30;;
70715;SDS011;59053;50.832;12.882;2022-12-18T04:27:03;25.48;;;7.80;;
70715;SDS011;59053;50.832;12.882;2022-12-18T04:29:32;20.90;;;7.93;;
70715;SDS011;59053;50.832;12.882;2022-12-18T04:31:58;27.70;;;7.47;;
70715;SDS011;59053;50.832;12.882;2022-12-18T04:34:25;20.27;;;7.35;;
70715;SDS011;59053;50.832;12.882;2022-12-18T04:36:52;19.20;;;7.32;;
70715;SDS011;59053;50.832;12.882;2022-12-18T04:39:19;22.00;;;6.28;;
70715;SDS011;59053;50.832;12.882;2022-12-18T04:41:46;22.83;;;7.80;;
70715;SDS011;59053;50.832;12.882;2022-12-18T04:44:12;17.92;;;6.97;;
70715;SDS011;59053;50.832;12.882;2022-12-18T04:46:37;26.03;;;8.37;;
70715;SDS011;59053;50.832;12.882;2022-12-18T04:49:03;18.73;;;6.80;;
70715;SDS011;59053;50.832;12.882;2022-12-18T04:51:28;19.57;;;6.90;;
70715;SDS011;59053;50.832;12.882;2022-12-18T04:53:53;19.10;;;6.80;;
70715;SDS011;59053;50.832;12.882;2022-12-18T04:56:18;18.98;;;7.38;;
70715;SDS011;59053;50.832;12.882;2022-12-18T04:58:44;20.70;;;6.73;;
70715;SDS011;59053;50.832;12.882;2022-12-18T05:01:10;16.93;;;6.33;;
70715;SDS011;59053;50.832;12.882;2022-12-18T05:03:36;18.33;;;6.65;;
70715;SDS011;59053;50.832;12.882;2022-12-18T05:06:02;21.93;;;7.10;;
70715;SDS011;59053;50.832;12.882;2022-12-18T05:08:27;22.33;;;7.32;;
70715;SDS011;59053;50.832;12.882;2022-12-18T05:11:03;20.40;;;6.53;;
70715;SDS011;59053;50.832;12.882;2022-12-18T05:13:29;21.53;;;6.90;;
70715;SDS011;59053;50.832;12.882;2022-12-18T05:15:54;23.67;;;6.15;;
70715;SDS011;59053;50.832;12.882;2022-12-18T05:18:20;18.27;;;6.17;;
70715;SDS011;59053;50.832;12.882;2022-12-18T05:20:45;20.30;;;6.57;;
70715;SDS011;59053;50.832;12.882;2022-12-18T05:23:10;16.83;;;6.77;;
70715;SDS011;59053;50.832;12.882;2022-12-18T05:25:36;19.33;;;6.37;;
70715;SDS011;59053;50.832;12.882;2022-12-18T05:28:01;20.30;;;6.30;;
70715;SDS011;59053;50.832;12.882;2022-12-18T05:30:26;20.77;;;7.13;;
70715;SDS011;59053;50.832;12.882;2022-12-18T05:32:52;23.70;;;7.73;;
70715;SDS011;59053;50.832;12.882;2022-12-18T05:35:18;20.35;;;6.68;;
70715;SDS011;59053;50.832;12.882;2022-12-18T05:37:43;13.00;;;4.87;;
70715;SDS011;59053;50.832;12.882;2022-12-18T05:40:09;22.73;;;6.03;;
70715;SDS011;59053;50.832;12.882;2022-12-18T05:42:35;20.63;;;6.03;;
70715;SDS011;59053;50.832;12.882;2022-12-18T05:45:00;15.50;;;4.97;;
70715;SDS011;59053;50.832;12.882;2022-12-18T05:47:26;15.73;;;4.90;;
70715;SDS011;59053;50.832;12.882;2022-12-18T05:49:51;19.35;;;4.97;;
70715;SDS011;59053;50.832;12.882;2022-12-18T05:52:16;15.65;;;5.03;;
70715;SDS011;59053;50.832;12.882;2022-12-18T05:54:42;13.00;;;4.90;;
70715;SDS011;59053;50.832;12.882;2022-12-18T05:57:07;18.97;;;5.23;;
70715;SDS011;59053;50.832;12.882;2022-12-18T05:59:32;17.90;;;6.00;;
70715;SDS011;59053;50.832;12.882;2022-12-18T06:04:46;9.52;;;4.03;;
70715;SDS011;59053;50.832;12.882;2022-12-18T06:07:12;17.43;;;4.37;;
70715;SDS011;59053;50.832;12.882;2022-12-18T06:09:37;16.05;;;5.13;;
70715;SDS011;59053;50.832;12.882;2022-12-18T06:12:03;14.67;;;4.53;;
70715;SDS011;59053;50.832;12.882;2022-12-18T06:14:42;15.17;;;5.00;;
70715;SDS011;59053;50.832;12.882;2022-12-18T06:17:07;15.57;;;5.63;;
70715;SDS011;59053;50.832;12.882;2022-12-18T06:19:42;15.37;;;4.73;;
70715;SDS011;59053;50.832;12.882;2022-12-18T06:22:07;14.52;;;5.07;;
70715;SDS011;59053;50.832;12.882;2022-12-18T06:27:09;14.90;;;5.10;;
70715;SDS011;59053;50.832;12.882;2022-12-18T06:29:47;18.50;;;5.63;;
70715;SDS011;59053;50.832;12.882;2022-12-18T06:32:12;18.00;;;5.70;;
70715;SDS011;59053;50.832;12.882;2022-12-18T06:35:23;15.20;;;4.63;;
70715;SDS011;59053;50.832;12.882;2022-12-18T06:37:52;15.80;;;5.00;;
70715;SDS011;59053;50.832;12.882;2022-12-18T06:40:17;13.50;;;5.00;;
70715;SDS011;59053;50.832;12.882;2022-12-18T06:49:15;21.30;;;4.68;;
70715;SDS011;59053;50.832;12.882;2022-12-18T06:51:41;12.00;;;4.32;;
70715;SDS011;59053;50.832;12.882;2022-12-18T06:54:06;15.20;;;5.10;;
70715;SDS011;59053;50.832;12.882;2022-12-18T06:56:32;14.07;;;5.47;;
70715;SDS011;59053;50.832;12.882;2022-12-18T06:58:57;14.30;;;4.32;;
70715;SDS011;59053;50.832;12.882;2022-12-18T07:01:23;13.65;;;4.90;;
70715;SDS011;59053;50.832;12.882;2022-12-18T07:03:52;11.37;;;4.07;;
70715;SDS011;59053;50.832;12.882;2022-12-18T07:06:19;11.88;;;5.07;;
70715;SDS011;59053;50.832;12.882;2022-12-18T07:08:45;18.75;;;5.50;;
70715;SDS011;59053;50.832;12.882;2022-12-18T07:11:16;16.30;;;5.17;;
70715;SDS011;59053;50.832;12.882;2022-12-18T07:13:46;10.55;;;3.75;;
70715;SDS011;59053;50.832;12.882;2022-12-18T07:16:13;15.80;;;5.32;;
70715;SDS011;59053;50.832;12.882;2022-12-18T07:18:39;12.63;;;4.23;;
70715;SDS011;59053;50.832;12.882;2022-12-18T07:21:05;10.57;;;3.97;;
70715;SDS011;59053;50.832;12.882;2022-12-18T07:23:34;11.80;;;4.43;;
70715;SDS011;59053;50.832;12.882;2022-12-18T07:32:33;15.20;;;4.63;;
70715;SDS011;59053;50.832;12.882;2022-12-18T07:34:59;12.90;;;4.38;;
70715;SDS011;59053;50.832;12.882;2022-12-18T07:37:25;8.33;;;3.73;;
70715;SDS011;59053;50.832;12.882;2022-12-18T07:39:50;11.47;;;3.93;;
70715;SDS011;59053;50.832;12.882;2022-12-18T07:42:15;13.00;;;4.03;;
70715;SDS011;59053;50.832;12.882;2022-12-18T07:44:57;13.25;;;5.35;;
70715;SDS011;59053;50.832;12.882;2022-12-18T07:47:22;12.30;;;4.13;;
70715;SDS011;59053;50.832;12.882;2022-12-18T07:49:47;12.50;;;5.05;;
70715;SDS011;59053;50.832;12.882;2022-12-18T07:55:08;12.55;;;4.28;;
70715;SDS011;59053;50.832;12.882;2022-12-18T07:57:33;13.47;;;4.10;;
70715;SDS011;59053;50.832;12.882;2022-12-18T08:03:39;9.38;;;4.10;;
70715;SDS011;59053;50.832;12.882;2022-12-18T08:06:12;12.15;;;4.30;;
70715;SDS011;59053;50.832;12.882;2022-12-18T08:08:40;19.07;;;4.47;;
70715;SDS011;59053;50.832;12.882;2022-12-18T08:11:07;13.20;;;4.22;;
70715;SDS011;59053;50.832;12.882;2022-12-18T08:13:44;14.47;;;5.03;;
70715;SDS011;59053;50.832;12.882;2022-12-18T08:16:40;7.57;;;3.05;;
70715;SDS011;59053;50.832;12.882;2022-12-18T08:19:27;11.32;;;4.32;;
70715;SDS011;59053;50.832;12.882;2022-12-18T08:22:00;15.95;;;5.32;;
70715;SDS011;59053;50.832;12.882;2022-12-18T08:24:26;12.32;;;4.72;;
70715;SDS011;59053;50.832;12.882;2022-12-18T08:48:15;12.88;;;4.45;;
70715;SDS011;59053;50.832;12.882;2022-12-18T08:50:56;16.23;;;5.27;;
70715;SDS011;59053;50.832;12.882;2022-12-18T08:53:45;15.27;;;5.85;;
70715;SDS011;59053;50.832;12.882;2022-12-18T08:56:13;12.98;;;4.72;;
70715;SDS011;59053;50.832;12.882;2022-12-18T08:58:54;13.85;;;5.72;;
70715;SDS011;59053;50.832;12.882;2022-12-18T09:01:43;16.38;;;6.00;;
70715;SDS011;59053;50.832;12.882;2022-12-18T09:04:21;16.40;;;6.50;;
70715;SDS011;59053;50.832;12.882;2022-12-18T09:09:47;19.52;;;5.78;;
70715;SDS011;59053;50.832;12.882;2022-12-18T09:44:13;14.15;;;6.10;;
70715;SDS011;59053;50.832;12.882;2022-12-18T09:46:43;20.17;;;7.68;;
70715;SDS011;59053;50.832;12.882;2022-12-18T09:49:14;21.58;;;7.75;;
70715;SDS011;59053;50.832;12.882;2022-12-18T09:51:51;19.97;;;7.43;;
70715;SDS011;59053;50.832;12.882;2022-12-18T09:54:22;24.77;;;8.88;;
70715;SDS011;59053;50.832;12.882;2022-12-18T09:56:48;30.67;;;9.95;;
70715;SDS011;59053;50.832;12.882;2022-12-18T09:59:17;27.00;;;9.67;;
70715;SDS011;59053;50.832;12.882;2022-12-18T10:01:43;29.70;;;9.93;;
70715;SDS011;59053;50.832;12.882;2022-12-18T10:04:08;22.03;;;8.30;;
70715;SDS011;59053;50.832;12.882;2022-12-18T10:06:43;25.23;;;9.47;;
70715;SDS011;59053;50.832;12.882;2022-12-18T10:24:54;24.92;;;8.90;;
70715;SDS011;59053;50.832;12.882;2022-12-18T10:27:18;25.25;;;9.40;;
70715;SDS011;59053;50.832;12.882;2022-12-18T10:29:46;28.00;;;9.50;;
70715;SDS011;59053;50.832;12.882;2022-12-18T10:32:15;22.57;;;8.80;;
70715;SDS011;59053;50.832;12.882;2022-12-18T10:34:44;22.88;;;8.30;;
70715;SDS011;59053;50.832;12.882;2022-12-18T10:37:11;25.80;;;9.20;;
70715;SDS011;59053;50.832;12.882;2022-12-18T10:39:39;22.45;;;8.48;;
70715;SDS011;59053;50.832;12.882;2022-12-18T10:42:16;22.90;;;7.97;;
70715;SDS011;59053;50.832;12.882;2022-12-18T10:44:41;38.03;;;11.73;;
70715;SDS011;59053;50.832;12.882;2022-12-18T10:47:10;35.00;;;10.60;;
70715;SDS011;59053;50.832;12.882;2022-12-18T10:49:47;24.27;;;8.55;;
70715;SDS011;59053;50.832;12.882;2022-12-18T10:52:22;32.95;;;11.27;;
70715;SDS011;59053;50.832;12.882;2022-12-18T10:54:57;36.38;;;12.27;;
70715;SDS011;59053;50.832;12.882;2022-12-18T10:59:56;27.07;;;8.10;;
70715;SDS011;59053;50.832;12.882;2022-12-18T11:02:25;20.48;;;5.90;;
70715;SDS011;59053;50.832;12.882;2022-12-18T11:04:51;15.63;;;5.38;;
70715;SDS011;59053;50.832;12.882;2022-12-18T11:07:16;16.60;;;5.35;;
70715;SDS011;59053;50.832;12.882;2022-12-18T11:09:42;14.97;;;5.40;;
70715;SDS011;59053;50.832;12.882;2022-12-18T11:17:16;15.07;;;6.47;;
70715;SDS011;59053;50.832;12.882;2022-12-18T11:19:42;19.35;;;7.07;;
70715;SDS011;59053;50.832;12.882;2022-12-18T11:22:26;15.70;;;5.67;;
70715;SDS011;59053;50.832;12.882;2022-12-18T11:25:02;14.60;;;4.95;;
70715;SDS011;59053;50.832;12.882;2022-12-18T11:27:28;11.02;;;4.03;;
70715;SDS011;59053;50.832;12.882;2022-12-18T11:30:06;11.43;;;4.23;;
70715;SDS011;59053;50.832;12.882;2022-12-18T11:32:38;18.15;;;5.75;;
70715;SDS011;59053;50.832;12.882;2022-12-18T11:35:19;13.30;;;4.55;;
70715;SDS011;59053;50.832;12.882;2022-12-18T11:37:53;14.90;;;5.43;;
70715;SDS011;59053;50.832;12.882;2022-12-18T11:40:27;14.00;;;4.43;;
70715;SDS011;59053;50.832;12.882;2022-12-18T11:42:58;13.20;;;4.20;;
70715;SDS011;59053;50.832;12.882;2022-12-18T11:48:03;13.35;;;4.63;;
70715;SDS011;59053;50.832;12.882;2022-12-18T11:53:01;13.65;;;4.40;;
70715;SDS011;59053;50.832;12.882;2022-12-18T11:55:33;14.98;;;5.47;;
70715;SDS011;59053;50.832;12.882;2022-12-18T11:58:21;19.48;;;7.18;;
70715;SDS011;59053;50.832;12.882;2022-12-18T12:00:54;14.27;;;4.60;;
70715;SDS011;59053;50.832;12.882;2022-12-18T12:03:23;16.48;;;5.35;;
70715;SDS011;59053;50.832;12.882;2022-12-18T12:06:03;15.27;;;4.82;;
70715;SDS011;59053;50.832;12.882;2022-12-18T12:08:35;21.13;;;6.60;;
70715;SDS011;59053;50.832;12.882;2022-12-18T12:16:08;15.60;;;4.40;;
70715;SDS011;59053;50.832;12.882;2022-12-18T12:18:39;11.75;;;4.25;;
70715;SDS011;59053;50.832;12.882;2022-12-18T12:21:13;13.88;;;5.28;;
70715;SDS011;59053;50.832;12.882;2022-12-18T12:26:09;11.63;;;4.00;;
70715;SDS011;59053;50.832;12.882;2022-12-18T12:31:24;14.68;;;5.88;;
70715;SDS011;59053;50.832;12.882;2022-12-18T12:34:01;9.13;;;3.55;;
70715;SDS011;59053;50.832;12.882;2022-12-18T12:39:15;13.15;;;3.92;;
70715;SDS011;59053;50.832;12.882;2022-12-18T12:41:42;9.80;;;3.88;;
70715;SDS011;59053;50.832;12.882;2022-12-18T12:44:29;10.15;;;3.83;;
70715;SDS011;59053;50.832;12.882;2022-12-18T12:46:56;10.20;;;3.83;;
70715;SDS011;59053;50.832;12.882;2022-12-18T12:49:25;12.10;;;4.85;;
70715;SDS011;59053;50.832;12.882;2022-12-18T12:51:57;17.27;;;5.85;;
70715;SDS011;59053;50.832;12.882;2022-12-18T12:54:24;24.52;;;7.88;;
70715;SDS011;59053;50.832;12.882;2022-12-18T13:01:58;10.85;;;4.30;;
70715;SDS011;59053;50.832;12.882;2022-12-18T13:09:21;24.20;;;8.30;;
70715;SDS011;59053;50.832;12.882;2022-12-18T13:11:46;19.30;;;6.13;;
70715;SDS011;59053;50.832;12.882;2022-12-18T13:14:31;12.80;;;4.53;;
70715;SDS011;59053;50.832;12.882;2022-12-18T13:17:13;13.57;;;3.72;;
70715;SDS011;59053;50.832;12.882;2022-12-18T13:19:39;22.13;;;5.63;;
70715;SDS011;59053;50.832;12.882;2022-12-18T13:22:04;9.90;;;3.30;;
70715;SDS011;59053;50.832;12.882;2022-12-18T13:24:30;9.70;;;3.50;;
70715;SDS011;59053;50.832;12.882;2022-12-18T13:26:56;9.60;;;3.67;;
70715;SDS011;59053;50.832;12.882;2022-12-18T13:29:39;12.27;;;3.90;;
70715;SDS011;59053;50.832;12.882;2022-12-18T13:32:15;13.57;;;4.07;;
70715;SDS011;59053;50.832;12.882;2022-12-18T13:34:43;12.10;;;3.85;;
70715;SDS011;59053;50.832;12.882;2022-12-18T13:39:53;16.00;;;5.68;;
70715;SDS011;59053;50.832;12.882;2022-12-18T13:45:07;14.95;;;4.20;;
70715;SDS011;59053;50.832;12.882;2022-12-18T13:47:47;20.67;;;6.70;;
70715;SDS011;59053;50.832;12.882;2022-12-18T13:50:23;19.38;;;5.60;;
70715;SDS011;59053;50.832;12.882;2022-12-18T13:52:48;14.68;;;3.85;;
70715;SDS011;59053;50.832;12.882;2022-12-18T13:55:16;16.03;;;4.30;;
70715;SDS011;59053;50.832;12.882;2022-12-18T13:57:42;18.42;;;5.53;;
70715;SDS011;59053;50.832;12.882;2022-12-18T14:02:44;17.98;;;5.93;;
70715;SDS011;59053;50.832;12.882;2022-12-18T14:05:20;22.13;;;7.03;;
70715;SDS011;59053;50.832;12.882;2022-12-18T14:07:46;22.15;;;7.30;;
70715;SDS011;59053;50.832;12.882;2022-12-18T14:10:11;27.47;;;8.97;;
70715;SDS011;59053;50.832;12.882;2022-12-18T14:12:38;25.08;;;7.20;;
70715;SDS011;59053;50.832;12.882;2022-12-18T14:17:54;15.93;;;4.97;;
70715;SDS011;59053;50.832;12.882;2022-12-18T14:20:20;15.10;;;5.32;;
70715;SDS011;59053;50.832;12.882;2022-12-18T14:22:46;20.03;;;7.70;;
70715;SDS011;59053;50.832;12.882;2022-12-18T14:27:37;15.57;;;4.93;;
70715;SDS011;59053;50.832;12.882;2022-12-18T14:30:16;14.57;;;5.00;;
70715;SDS011;59053;50.832;12.882;2022-12-18T14:32:59;14.50;;;4.60;;
70715;SDS011;59053;50.832;12.882;2022-12-18T14:35:24;14.85;;;4.25;;
70715;SDS011;59053;50.832;12.882;2022-12-18T14:37:49;12.77;;;3.77;;
70715;SDS011;59053;50.832;12.882;2022-12-18T14:40:14;14.57;;;4.03;;
70715;SDS011;59053;50.832;12.882;2022-12-18T14:42:40;12.80;;;4.10;;
70715;SDS011;59053;50.832;12.882;2022-12-18T14:45:31;14.23;;;4.10;;
70715;SDS011;59053;50.832;12.882;2022-12-18T14:47:57;13.07;;;4.63;;
70715;SDS011;59053;50.832;12.882;2022-12-18T14:50:22;13.23;;;4.10;;
70715;SDS011;59053;50.832;12.882;2022-12-18T14:52:48;15.18;;;5.43;;
70715;SDS011;59053;50.832;12.882;2022-12-18T14:55:14;14.47;;;3.57;;
70715;SDS011;59053;50.832;12.882;2022-12-18T14:57:40;10.30;;;3.92;;
70715;SDS011;59053;50.832;12.882;2022-12-18T15:00:15;11.53;;;3.43;;
70715;SDS011;59053;50.832;12.882;2022-12-18T15:02:41;9.00;;;2.75;;
70715;SDS011;59053;50.832;12.882;2022-12-18T15:07:40;10.90;;;3.63;;
70715;SDS011;59053;50.832;12.882;2022-12-18T15:12:35;13.23;;;4.47;;
70715;SDS011;59053;50.832;12.882;2022-12-18T15:15:01;13.45;;;3.83;;
70715;SDS011;59053;50.832;12.882;2022-12-18T15:17:26;12.20;;;3.85;;
70715;SDS011;59053;50.832;12.882;2022-12-18T15:19:53;12.43;;;3.53;;
70715;SDS011;59053;50.832;12.882;2022-12-18T15:22:30;10.07;;;3.05;;
70715;SDS011;59053;50.832;12.882;2022-12-18T15:24:56;12.48;;;3.53;;
70715;SDS011;59053;50.832;12.882;2022-12-18T15:27:26;11.47;;;3.20;;
70715;SDS011;59053;50.832;12.882;2022-12-18T15:32:33;8.05;;;2.17;;
70715;SDS011;59053;50.832;12.882;2022-12-18T15:37:38;9.77;;;3.93;;
70715;SDS011;59053;50.832;12.882;2022-12-18T15:40:04;12.07;;;3.83;;
70715;SDS011;59053;50.832;12.882;2022-12-18T15:42:29;13.00;;;3.38;;
70715;SDS011;59053;50.832;12.882;2022-12-18T15:45:14;13.65;;;3.85;;
70715;SDS011;59053;50.832;12.882;2022-12-18T15:47:39;12.88;;;3.85;;
70715;SDS011;59053;50.832;12.882;2022-12-18T15:50:05;13.93;;;4.57;;
70715;SDS011;59053;50.832;12.882;2022-12-18T15:52:31;13.13;;;3.90;;
70715;SDS011;59053;50.832;12.882;2022-12-18T15:54:59;12.18;;;4.18;;
70715;SDS011;59053;50.832;12.882;2022-12-18T15:57:43;10.48;;;3.22;;
70715;SDS011;59053;50.832;12.882;2022-12-18T16:00:11;15.33;;;5.23;;
70715;SDS011;59053;50.832;12.882;2022-12-18T16:02:36;16.90;;;5.07;;
70715;SDS011;59053;50.832;12.882;2022-12-18T16:05:01;12.50;;;3.53;;
70715;SDS011;59053;50.832;12.882;2022-12-18T16:07:27;17.53;;;4.53;;
70715;SDS011;59053;50.832;12.882;2022-12-18T16:09:52;14.93;;;4.53;;
70715;SDS011;59053;50.832;12.882;2022-12-18T16:12:18;11.43;;;4.20;;
70715;SDS011;59053;50.832;12.882;2022-12-18T16:14:44;13.95;;;3.95;;
70715;SDS011;59053;50.832;12.882;2022-12-18T16:17:10;13.50;;;4.03;;
70715;SDS011;59053;50.832;12.882;2022-12-18T16:19:36;13.00;;;3.90;;
70715;SDS011;59053;50.832;12.882;2022-12-18T16:22:01;12.20;;;3.40;;
70715;SDS011;59053;50.832;12.882;2022-12-18T16:24:27;15.17;;;4.40;;
70715;SDS011;59053;50.832;12.882;2022-12-18T16:26:53;19.67;;;5.40;;
70715;SDS011;59053;50.832;12.882;2022-12-18T16:29:19;14.90;;;4.83;;
70715;SDS011;59053;50.832;12.882;2022-12-18T16:31:49;45.00;;;15.57;;
70715;SDS011;59053;50.832;12.882;2022-12-18T16:34:24;26.85;;;9.77;;
70715;SDS011;59053;50.832;12.882;2022-12-18T16:36:53;10.70;;;3.13;;
70715;SDS011;59053;50.832;12.882;2022-12-18T16:39:19;11.63;;;3.75;;
70715;SDS011;59053;50.832;12.882;2022-12-18T16:41:45;15.45;;;4.43;;
70715;SDS011;59053;50.832;12.882;2022-12-18T16:44:10;7.13;;;2.67;;
70715;SDS011;59053;50.832;12.882;2022-12-18T16:46:36;20.77;;;5.93;;
70715;SDS011;59053;50.832;12.882;2022-12-18T16:49:01;10.60;;;4.28;;
70715;SDS011;59053;50.832;12.882;2022-12-18T16:51:27;15.97;;;4.67;;
70715;SDS011;59053;50.832;12.882;2022-12-18T16:53:55;17.77;;;5.47;;
70715;SDS011;59053;50.832;12.882;2022-12-18T16:56:20;15.27;;;5.20;;
70715;SDS011;59053;50.832;12.882;2022-12-18T16:58:53;16.80;;;5.10;;
70715;SDS011;59053;50.832;12.882;2022-12-18T17:01:19;15.10;;;4.57;;
70715;SDS011;59053;50.832;12.882;2022-12-18T17:03:50;14.30;;;4.57;;
70715;SDS011;59053;50.832;12.882;2022-12-18T17:06:15;16.35;;;4.68;;
70715;SDS011;59053;50.832;12.882;2022-12-18T17:08:41;14.47;;;4.20;;
70715;SDS011;59053;50.832;12.882;2022-12-18T17:11:06;12.50;;;3.37;;
70715;SDS011;59053;50.832;12.882;2022-12-18T17:13:32;12.13;;;4.30;;
70715;SDS011;59053;50.832;12.882;2022-12-18T17:16:04;9.47;;;3.20;;
70715;SDS011;59053;50.832;12.882;2022-12-18T17:18:30;15.10;;;4.95;;
70715;SDS011;59053;50.832;12.882;2022-12-18T17:20:59;8.27;;;3.03;;
70715;SDS011;59053;50.832;12.882;2022-12-18T17:23:24;7.90;;;2.67;;
70715;SDS011;59053;50.832;12.882;2022-12-18T17:25:53;17.67;;;5.60;;
70715;SDS011;59053;50.832;12.882;2022-12-18T17:28:18;16.42;;;4.88;;
70715;SDS011;59053;50.832;12.882;2022-12-18T17:30:43;17.73;;;4.97;;
70715;SDS011;59053;50.832;12.882;2022-12-18T17:33:09;15.90;;;3.90;;
70715;SDS011;59053;50.832;12.882;2022-12-18T17:35:34;15.77;;;4.00;;